Time;durP1;ratioP1;P1;durP2;ratioP2;P2;SDS_P1;SDS_P2;PMS_P1;PMS_P2;Temp;Humidity;BMP_temperature;BMP_pressure;BME280_temperature;BME280_humidity;BME280_pressure;Samples;Min_cycle;Max_cycle;Signal;HPM_P1;HPM_P2
2021/12/06 00:01:29;;;;;;;44.93;24.23;;;2.90;99.90;;;;;;5117614;28;20551;-68
2021/12/06 00:04:00;;;;;;;38.63;23.30;;;2.90;99.90;;;;;;5116840;28;20488;-68
2021/12/06 00:06:33;;;;;;;45.10;26.10;;;2.90;99.90;;;;;;5116844;28;20496;-68
2021/12/06 00:09:00;;;;;;;38.97;24.43;;;2.90;99.90;;;;;;5116816;28;20502;-67
2021/12/06 00:11:28;;;;;;;44.03;25.73;;;2.80;99.90;;;;;;5116685;28;20457;-68
2021/12/06 00:13:55;;;;;;;47.73;25.30;;;2.80;99.90;;;;;;5116335;28;20543;-68
2021/12/06 00:16:23;;;;;;;41.00;24.47;;;2.80;99.90;;;;;;5117115;28;20452;-67
2021/12/06 00:18:51;;;;;;;44.03;26.43;;;2.70;99.90;;;;;;5116557;28;20547;-69
2021/12/06 00:21:19;;;;;;;43.87;25.47;;;2.80;99.90;;;;;;5116796;28;20460;-69
2021/12/06 00:23:45;;;;;;;48.13;24.97;;;2.80;99.90;;;;;;5115521;28;20460;-69
2021/12/06 00:26:12;;;;;;;42.93;25.00;;;2.70;99.90;;;;;;5116581;28;20460;-69
2021/12/06 00:28:42;;;;;;;40.17;23.50;;;2.70;99.90;;;;;;5116195;28;20480;-68
2021/12/06 00:31:09;;;;;;;42.00;24.40;;;2.70;99.90;;;;;;5116527;28;20456;-69
2021/12/06 00:33:35;;;;;;;40.67;24.40;;;2.80;99.90;;;;;;5116627;28;20456;-68
2021/12/06 00:36:07;;;;;;;42.27;24.20;;;2.70;99.90;;;;;;5116307;28;20761;-68
2021/12/06 00:38:35;;;;;;;42.40;23.17;;;2.80;99.90;;;;;;5116192;28;20444;-68
2021/12/06 00:41:04;;;;;;;52.00;26.33;;;2.70;99.90;;;;;;5116102;28;20457;-70
2021/12/06 00:43:31;;;;;;;39.10;22.63;;;2.80;99.90;;;;;;5115392;28;20553;-68
2021/12/06 00:45:59;;;;;;;40.83;23.30;;;2.80;99.90;;;;;;5116523;28;20514;-68
2021/12/06 00:48:25;;;;;;;40.60;23.63;;;2.80;99.90;;;;;;5115707;28;20588;-68
2021/12/06 00:50:52;;;;;;;36.20;23.30;;;2.70;99.90;;;;;;5116286;28;20464;-68
2021/12/06 00:53:19;;;;;;;39.97;21.60;;;2.80;99.90;;;;;;5115759;28;20456;-68
2021/12/06 00:55:46;;;;;;;39.17;22.73;;;2.80;99.90;;;;;;5115658;28;20453;-68
2021/12/06 00:58:12;;;;;;;37.77;22.00;;;2.80;99.90;;;;;;5115375;28;20449;-68
2021/12/06 01:00:42;;;;;;;40.23;23.10;;;2.80;99.90;;;;;;5115438;28;20734;-68
2021/12/06 01:03:17;;;;;;;39.73;22.40;;;2.80;99.90;;;;;;5116327;28;20452;-68
2021/12/06 01:05:44;;;;;;;40.50;23.20;;;2.80;99.90;;;;;;5115871;28;20440;-68
2021/12/06 01:08:11;;;;;;;38.07;22.20;;;2.80;99.90;;;;;;5115575;28;20509;-68
2021/12/06 01:10:40;;;;;;;35.47;21.00;;;2.80;99.90;;;;;;5115545;28;20472;-69
2021/12/06 01:13:07;;;;;;;36.23;21.07;;;2.80;99.90;;;;;;5115644;28;20460;-68
2021/12/06 01:15:37;;;;;;;34.03;21.23;;;2.80;99.90;;;;;;5115196;28;20467;-68
2021/12/06 01:18:10;;;;;;;31.47;21.17;;;2.80;99.90;;;;;;5115458;28;20440;-68
2021/12/06 01:20:46;;;;;;;37.07;21.90;;;2.80;99.90;;;;;;5115142;28;20812;-68
2021/12/06 01:23:15;;;;;;;34.53;21.20;;;2.80;99.90;;;;;;5115633;28;20436;-67
2021/12/06 01:25:51;;;;;;;38.50;20.90;;;2.90;99.90;;;;;;5115301;28;20460;-68
2021/12/06 01:31:05;;;;;;;34.40;20.80;;;2.80;99.90;;;;;;5111487;28;20456;-69
2021/12/06 01:33:42;;;;;;;33.40;21.60;;;2.80;99.90;;;;;;5114844;28;20901;-68
2021/12/06 01:39:16;;;;;;;34.93;22.63;;;2.80;99.90;;;;;;5114972;28;20516;-68
2021/12/06 01:41:49;;;;;;;31.43;20.10;;;2.70;99.90;;;;;;5115222;28;20432;-68
2021/12/06 01:44:18;;;;;;;33.13;21.10;;;2.70;99.90;;;;;;5114503;28;20624;-69
2021/12/06 01:46:49;;;;;;;32.60;19.70;;;2.70;99.90;;;;;;5114574;28;20443;-69
2021/12/06 01:49:17;;;;;;;31.83;20.10;;;2.70;99.90;;;;;;5114941;28;20480;-68
2021/12/06 01:51:46;;;;;;;28.37;19.10;;;2.70;99.90;;;;;;5114918;28;20460;-68
2021/12/06 01:54:14;;;;;;;29.93;19.23;;;2.70;99.90;;;;;;5114593;28;20777;-68
2021/12/06 01:56:42;;;;;;;28.67;18.90;;;2.70;99.90;;;;;;5114853;28;20459;-68
2021/12/06 01:59:11;;;;;;;39.87;21.70;;;2.60;99.90;;;;;;5114853;28;20463;-68
2021/12/06 02:01:38;;;;;;;30.07;18.63;;;2.60;99.90;;;;;;5114485;28;20456;-68
2021/12/06 02:04:06;;;;;;;35.17;21.07;;;2.60;99.90;;;;;;5114781;28;20453;-68
2021/12/06 02:06:33;;;;;;;33.13;20.70;;;2.60;99.90;;;;;;5114530;28;20516;-68
2021/12/06 02:09:02;;;;;;;33.87;20.87;;;2.60;99.90;;;;;;5114631;28;20452;-68
2021/12/06 02:11:32;;;;;;;36.50;20.30;;;2.50;99.90;;;;;;5114706;28;20472;-68
2021/12/06 02:14:05;;;;;;;37.80;21.87;;;2.40;99.90;;;;;;5114783;28;20453;-68
2021/12/06 02:16:40;;;;;;;34.80;20.87;;;2.40;99.90;;;;;;5114557;28;20491;-69
2021/12/06 02:19:07;;;;;;;28.87;20.87;;;2.30;99.90;;;;;;5114276;28;20497;-67
2021/12/06 02:21:40;;;;;;;35.23;21.43;;;2.30;99.90;;;;;;5114130;28;20460;-67
2021/12/06 02:24:10;;;;;;;41.50;22.20;;;2.20;99.90;;;;;;5114707;28;20468;-67
2021/12/06 02:26:38;;;;;;;38.37;24.20;;;2.10;99.90;;;;;;5114571;28;20456;-68
2021/12/06 02:29:05;;;;;;;41.67;24.67;;;2.00;99.90;;;;;;5114182;28;20456;-68
2021/12/06 02:31:32;;;;;;;36.63;22.50;;;2.00;99.90;;;;;;5114084;28;20916;-68
2021/12/06 02:33:59;;;;;;;39.67;24.30;;;1.90;99.90;;;;;;5114675;28;20456;-68
2021/12/06 02:36:26;;;;;;;40.10;23.70;;;1.90;99.90;;;;;;5114571;28;20766;-67
2021/12/06 02:38:56;;;;;;;44.33;24.87;;;1.90;99.90;;;;;;5114405;28;20476;-68
2021/12/06 02:41:23;;;;;;;40.93;24.53;;;1.90;99.90;;;;;;5113989;28;20464;-68
2021/12/06 02:43:52;;;;;;;39.40;25.30;;;1.90;99.90;;;;;;5113974;28;20491;-70
2021/12/06 02:46:19;;;;;;;45.03;25.10;;;1.80;99.90;;;;;;5115278;28;20517;-67
2021/12/06 02:48:46;;;;;;;46.30;25.73;;;1.90;99.90;;;;;;5118077;28;20456;-69
2021/12/06 02:51:15;;;;;;;46.40;27.07;;;1.80;99.90;;;;;;5118094;28;20491;-68
2021/12/06 02:53:42;;;;;;;42.00;25.40;;;1.80;99.90;;;;;;5118063;28;20448;-69
2021/12/06 02:56:29;;;;;;;43.93;26.13;;;1.80;99.90;;;;;;5118173;28;20832;-68
2021/12/06 02:58:58;;;;;;;53.00;28.23;;;1.70;99.90;;;;;;5118018;28;20516;-67
2021/12/06 03:01:30;;;;;;;47.00;27.00;;;1.70;99.90;;;;;;5117609;28;20573;-67
2021/12/06 03:03:58;;;;;;;44.30;27.00;;;1.70;99.90;;;;;;5117871;28;20509;-67
2021/12/06 03:06:26;;;;;;;45.40;26.00;;;1.60;99.90;;;;;;5117767;28;20803;-68
2021/12/06 03:09:04;;;;;;;47.83;27.17;;;1.60;99.90;;;;;;5117870;28;20492;-69
2021/12/06 03:11:35;;;;;;;47.93;29.20;;;1.70;99.90;;;;;;5117729;28;20440;-68
2021/12/06 03:14:02;;;;;;;48.93;27.97;;;1.70;99.90;;;;;;5117515;28;20436;-68
2021/12/06 03:16:29;;;;;;;45.67;27.10;;;1.80;99.90;;;;;;5117701;28;20456;-68
2021/12/06 03:18:57;;;;;;;45.53;27.90;;;1.70;99.90;;;;;;5117555;28;20452;-68
2021/12/06 03:21:26;;;;;;;44.30;27.17;;;1.80;99.90;;;;;;5117041;28;20488;-68
2021/12/06 03:23:55;;;;;;;47.30;28.80;;;1.80;99.90;;;;;;5117609;28;20448;-68
2021/12/06 03:26:23;;;;;;;49.27;27.70;;;1.80;99.90;;;;;;5117445;28;20463;-68
2021/12/06 03:28:51;;;;;;;55.77;30.43;;;1.90;99.90;;;;;;5117407;28;20456;-68
2021/12/06 03:31:19;;;;;;;47.00;27.57;;;1.90;99.90;;;;;;5116925;28;20852;-68
2021/12/06 03:33:49;;;;;;;46.90;28.13;;;1.90;99.90;;;;;;5117309;28;20464;-68
2021/12/06 03:36:18;;;;;;;43.17;26.33;;;1.90;99.90;;;;;;5117810;28;20460;-69
2021/12/06 03:38:46;;;;;;;46.80;27.80;;;1.90;99.90;;;;;;5117639;28;20529;-68
2021/12/06 03:41:14;;;;;;;47.67;28.90;;;1.90;99.90;;;;;;5117319;28;20508;-68
2021/12/06 03:43:42;;;;;;;47.47;27.27;;;1.90;99.90;;;;;;5116925;28;20484;-68
2021/12/06 03:46:13;;;;;;;42.20;26.50;;;1.90;99.90;;;;;;5117446;28;20459;-68
2021/12/06 03:48:40;;;;;;;45.30;26.77;;;1.90;99.90;;;;;;5117018;28;20448;-68
2021/12/06 03:51:08;;;;;;;42.43;26.97;;;1.90;99.90;;;;;;5116965;28;20476;-68
2021/12/06 03:53:34;;;;;;;45.03;28.00;;;1.80;99.90;;;;;;5117078;28;20456;-68
2021/12/06 03:56:01;;;;;;;46.10;26.23;;;1.80;99.90;;;;;;5116860;28;20460;-68
2021/12/06 03:58:28;;;;;;;48.97;29.93;;;1.80;99.90;;;;;;5116946;28;20456;-68
2021/12/06 04:00:55;;;;;;;46.10;28.57;;;1.80;99.90;;;;;;5116591;28;20526;-68
2021/12/06 04:03:25;;;;;;;51.53;31.17;;;1.70;99.90;;;;;;5116917;28;20783;-69
2021/12/06 04:05:52;;;;;;;46.77;28.00;;;1.70;99.90;;;;;;5117426;28;20453;-68
2021/12/06 04:08:19;;;;;;;44.97;26.60;;;1.70;99.90;;;;;;5116755;28;20460;-68
2021/12/06 04:10:46;;;;;;;53.67;29.90;;;1.70;99.90;;;;;;5116415;28;20491;-68
2021/12/06 04:13:13;;;;;;;51.07;29.20;;;1.80;99.90;;;;;;5116249;28;20479;-68
2021/12/06 04:15:41;;;;;;;48.20;28.67;;;1.80;99.90;;;;;;5116553;28;20550;-67
2021/12/06 04:18:08;;;;;;;44.03;27.00;;;1.80;99.90;;;;;;5116178;28;20452;-68
2021/12/06 04:20:37;;;;;;;52.33;28.90;;;1.80;99.90;;;;;;5116208;28;20463;-68
2021/12/06 04:23:08;;;;;;;40.53;26.33;;;1.90;99.90;;;;;;5116293;28;20475;-69
2021/12/06 04:25:35;;;;;;;44.47;26.77;;;1.80;99.90;;;;;;5116309;28;20498;-68
2021/12/06 04:28:06;;;;;;;46.37;26.47;;;1.80;99.90;;;;;;5116430;28;20456;-68
2021/12/06 04:30:34;;;;;;;49.50;27.77;;;1.80;99.90;;;;;;5116495;28;20460;-69
2021/12/06 04:33:01;;;;;;;50.10;27.07;;;1.80;99.90;;;;;;5116220;28;20460;-69
2021/12/06 04:35:29;;;;;;;43.47;27.13;;;1.70;99.90;;;;;;5116610;28;20456;-68
2021/12/06 04:37:58;;;;;;;43.47;27.30;;;1.80;99.90;;;;;;5116946;28;20843;-68
2021/12/06 04:40:27;;;;;;;45.40;26.87;;;1.80;99.90;;;;;;5116715;28;20565;-68
2021/12/06 04:42:54;;;;;;;43.07;28.13;;;1.80;99.90;;;;;;5116059;28;20540;-68
2021/12/06 04:45:21;;;;;;;42.00;27.40;;;1.70;99.90;;;;;;5115863;28;20456;-68
2021/12/06 04:47:47;;;;;;;46.10;28.80;;;1.80;99.90;;;;;;5115746;28;20463;-69
2021/12/06 04:50:15;;;;;;;45.00;26.27;;;1.80;99.90;;;;;;5115739;28;20480;-68
2021/12/06 04:52:43;;;;;;;43.60;28.00;;;1.80;99.90;;;;;;5116479;28;20461;-68
2021/12/06 04:55:17;;;;;;;45.57;26.63;;;1.80;99.90;;;;;;5116717;28;20457;-69
2021/12/06 04:57:47;;;;;;;43.70;27.10;;;1.80;99.90;;;;;;5115661;28;20449;-69
2021/12/06 05:00:19;;;;;;;44.30;26.47;;;1.80;99.90;;;;;;5115796;28;20497;-69
2021/12/06 05:02:47;;;;;;;43.00;25.60;;;1.80;99.90;;;;;;5115767;28;20831;-69
2021/12/06 05:05:17;;;;;;;43.40;26.10;;;1.80;99.90;;;;;;5115510;28;20486;-69
2021/12/06 05:07:46;;;;;;;45.10;26.23;;;1.90;99.90;;;;;;5115663;28;20456;-68
2021/12/06 05:10:16;;;;;;;40.33;26.07;;;1.80;99.90;;;;;;5114812;28;20480;-69
2021/12/06 05:12:44;;;;;;;44.00;25.57;;;1.80;99.90;;;;;;5115267;28;20839;-68
2021/12/06 05:15:12;;;;;;;42.47;26.03;;;1.80;99.90;;;;;;5115361;28;20506;-68
2021/12/06 05:17:40;;;;;;;42.50;28.70;;;1.80;99.90;;;;;;5115220;28;20460;-68
2021/12/06 05:20:09;;;;;;;40.73;25.20;;;1.80;99.90;;;;;;5115446;28;20787;-68
2021/12/06 05:22:36;;;;;;;41.83;26.50;;;1.90;99.90;;;;;;5115192;28;20837;-68
2021/12/06 05:25:03;;;;;;;40.33;24.20;;;1.90;99.90;;;;;;5114946;28;20448;-68
2021/12/06 05:27:31;;;;;;;37.60;24.00;;;1.90;99.90;;;;;;5115166;28;20840;-68
2021/12/06 05:30:02;;;;;;;37.97;26.10;;;1.90;99.90;;;;;;5114750;28;20928;-68
2021/12/06 05:32:35;;;;;;;43.90;25.60;;;1.90;99.90;;;;;;5114802;28;20437;-68
2021/12/06 05:35:06;;;;;;;42.10;24.73;;;1.90;99.90;;;;;;5114911;28;20580;-68
2021/12/06 05:37:35;;;;;;;42.20;23.90;;;1.90;99.90;;;;;;5115234;28;20444;-68
2021/12/06 05:40:03;;;;;;;44.80;25.00;;;1.80;99.90;;;;;;5114496;28;20456;-68
2021/12/06 05:42:31;;;;;;;48.20;26.60;;;1.80;99.90;;;;;;5114714;28;20484;-68
2021/12/06 05:44:58;;;;;;;36.77;24.20;;;1.90;99.90;;;;;;5115030;28;20770;-68
2021/12/06 05:47:24;;;;;;;40.03;24.03;;;1.90;99.90;;;;;;5114769;28;20525;-68
2021/12/06 05:49:51;;;;;;;41.93;26.50;;;1.90;99.90;;;;;;5114926;28;20456;-68
2021/12/06 05:52:18;;;;;;;127.77;64.17;;;1.90;99.90;;;;;;5114698;28;20537;-68
2021/12/06 05:54:45;;;;;;;42.67;27.37;;;2.00;99.90;;;;;;5114380;28;20955;-68
2021/12/06 05:57:12;;;;;;;41.93;25.07;;;2.00;99.90;;;;;;5114882;28;20471;-68
2021/12/06 05:59:40;;;;;;;43.70;26.17;;;2.00;99.90;;;;;;5114932;28;20453;-68
2021/12/06 06:02:09;;;;;;;38.57;24.20;;;2.00;99.90;;;;;;5114306;28;20452;-68
2021/12/06 06:04:36;;;;;;;43.13;26.17;;;2.00;99.90;;;;;;5114827;28;20452;-68
2021/12/06 06:07:03;;;;;;;37.30;23.80;;;2.00;99.90;;;;;;5114553;28;20460;-68
2021/12/06 06:09:30;;;;;;;40.20;24.07;;;2.00;99.90;;;;;;5114719;28;20452;-68
2021/12/06 06:11:57;;;;;;;37.73;24.10;;;1.90;99.90;;;;;;5114568;28;20472;-68
2021/12/06 06:14:24;;;;;;;45.10;24.23;;;1.90;99.90;;;;;;5114504;28;20440;-68
2021/12/06 06:16:53;;;;;;;41.57;25.80;;;1.90;99.90;;;;;;5114679;28;20456;-68
2021/12/06 06:19:22;;;;;;;40.60;24.73;;;1.90;99.90;;;;;;5114578;28;20479;-68
2021/12/06 06:21:50;;;;;;;41.10;25.03;;;2.00;99.90;;;;;;5117664;28;20897;-68
2021/12/06 06:24:19;;;;;;;42.60;25.50;;;2.00;99.90;;;;;;5118566;28;20505;-68
2021/12/06 06:26:45;;;;;;;37.47;24.23;;;1.90;99.90;;;;;;5118345;28;20499;-68
2021/12/06 06:29:13;;;;;;;41.23;25.30;;;2.00;99.90;;;;;;5118437;28;20464;-68
2021/12/06 06:31:40;;;;;;;38.33;24.40;;;1.90;99.90;;;;;;5118165;28;20472;-68
2021/12/06 06:34:08;;;;;;;39.60;24.33;;;1.90;99.90;;;;;;5118735;28;20489;-68
2021/12/06 06:36:35;;;;;;;37.87;23.87;;;1.90;99.90;;;;;;5118357;28;20456;-68
2021/12/06 06:39:03;;;;;;;41.70;24.93;;;1.90;99.90;;;;;;5118326;28;20456;-68
2021/12/06 06:41:31;;;;;;;42.87;27.40;;;1.90;99.90;;;;;;5118291;28;20460;-68
2021/12/06 06:43:58;;;;;;;43.37;26.43;;;1.90;99.90;;;;;;5118042;28;20490;-68
2021/12/06 06:46:24;;;;;;;41.57;25.40;;;2.00;99.90;;;;;;5118320;28;20456;-68
2021/12/06 06:48:56;;;;;;;39.67;24.50;;;2.00;99.90;;;;;;5117863;28;20463;-67
2021/12/06 06:51:24;;;;;;;41.20;25.83;;;2.10;99.90;;;;;;5117895;28;20548;-69
2021/12/06 06:53:51;;;;;;;45.33;28.20;;;2.00;99.90;;;;;;5117928;28;20467;-69
2021/12/06 06:56:18;;;;;;;41.57;26.60;;;2.00;99.90;;;;;;5117525;28;20876;-69
2021/12/06 06:58:44;;;;;;;41.57;25.03;;;2.00;99.90;;;;;;5117858;28;20452;-69
2021/12/06 07:01:11;;;;;;;39.90;24.70;;;2.00;99.90;;;;;;5117895;28;20456;-69
2021/12/06 07:03:38;;;;;;;43.10;25.47;;;2.00;99.90;;;;;;5119197;28;20456;-68
2021/12/06 07:06:04;;;;;;;40.43;24.90;;;2.10;99.90;;;;;;5118210;28;20455;-69
2021/12/06 07:08:33;;;;;;;42.83;26.00;;;2.10;99.90;;;;;;5120941;28;20452;-69
2021/12/06 07:11:00;;;;;;;37.90;24.70;;;2.10;99.90;;;;;;5118112;28;20502;-68
2021/12/06 07:13:28;;;;;;;41.90;24.50;;;2.10;99.90;;;;;;5117594;28;20452;-68
2021/12/06 07:15:56;;;;;;;44.63;24.40;;;2.10;99.90;;;;;;5117871;28;20468;-68
2021/12/06 07:18:22;;;;;;;40.07;24.70;;;2.20;99.90;;;;;;5117796;28;20453;-68
2021/12/06 07:20:49;;;;;;;42.63;25.73;;;2.20;99.90;;;;;;5117539;28;20460;-68
2021/12/06 07:23:16;;;;;;;39.40;24.20;;;2.30;99.90;;;;;;5117416;28;20783;-69
2021/12/06 07:25:44;;;;;;;42.20;26.23;;;2.20;99.90;;;;;;5117337;28;20467;-69
2021/12/06 07:28:11;;;;;;;37.10;23.40;;;2.30;99.90;;;;;;5116796;28;20920;-69
2021/12/06 07:30:37;;;;;;;34.93;23.40;;;2.30;99.90;;;;;;5116941;28;20463;-69
2021/12/06 07:33:05;;;;;;;38.80;23.40;;;2.30;99.90;;;;;;5116599;28;20843;-69
2021/12/06 07:35:32;;;;;;;38.53;23.30;;;2.40;99.90;;;;;;5117035;28;20461;-69
2021/12/06 07:38:02;;;;;;;37.00;23.47;;;2.40;99.90;;;;;;5116847;28;20456;-69
2021/12/06 07:40:29;;;;;;;33.63;23.00;;;2.50;99.90;;;;;;5117107;28;20452;-69
2021/12/06 07:42:58;;;;;;;36.80;23.17;;;2.50;99.90;;;;;;5116674;28;20520;-69
2021/12/06 07:45:25;;;;;;;37.70;22.60;;;2.60;99.90;;;;;;5116709;28;20453;-69
2021/12/06 07:47:51;;;;;;;32.63;23.60;;;2.60;99.90;;;;;;5116907;28;20495;-68
2021/12/06 07:50:21;;;;;;;39.27;23.20;;;2.60;99.90;;;;;;5116772;28;20867;-69
2021/12/06 07:52:49;;;;;;;34.43;22.53;;;2.60;99.90;;;;;;5116993;28;20848;-69
2021/12/06 07:55:18;;;;;;;38.20;23.63;;;2.70;99.90;;;;;;5117217;28;20531;-68
2021/12/06 07:57:45;;;;;;;37.37;23.37;;;2.60;99.90;;;;;;5116938;28;20456;-69
2021/12/06 08:00:17;;;;;;;35.37;23.10;;;2.60;99.90;;;;;;5117014;28;20452;-68
2021/12/06 08:02:44;;;;;;;36.00;22.00;;;2.60;99.90;;;;;;5117200;28;20515;-69
2021/12/06 08:05:30;;;;;;;36.43;23.63;;;2.70;99.90;;;;;;5119018;28;20794;-68
2021/12/06 08:07:58;;;;;;;40.07;23.17;;;2.70;99.90;;;;;;5117520;28;20528;-69
2021/12/06 08:10:25;;;;;;;34.67;22.73;;;2.70;99.90;;;;;;5116849;28;20489;-69
2021/12/06 08:12:51;;;;;;;37.90;23.43;;;2.70;99.90;;;;;;5116894;28;20947;-68
2021/12/06 08:15:19;;;;;;;36.50;23.00;;;2.70;99.90;;;;;;5116556;28;20877;-68
2021/12/06 08:17:47;;;;;;;40.57;23.30;;;2.80;99.90;;;;;;5116437;28;20853;-68
2021/12/06 08:20:14;;;;;;;38.07;22.77;;;2.80;99.90;;;;;;5116544;28;20463;-69
2021/12/06 08:22:41;;;;;;;39.83;24.53;;;2.80;99.90;;;;;;5116556;28;20456;-68
2021/12/06 08:25:10;;;;;;;33.57;21.50;;;2.80;99.90;;;;;;5116109;28;20467;-68
2021/12/06 08:27:37;;;;;;;31.13;20.87;;;2.70;99.90;;;;;;5116032;28;20464;-68
2021/12/06 08:30:06;;;;;;;36.20;24.30;;;2.70;99.90;;;;;;5116204;28;20452;-68
2021/12/06 08:32:35;;;;;;;42.70;23.70;;;2.70;99.90;;;;;;5116051;28;20775;-68
2021/12/06 08:35:02;;;;;;;38.00;23.30;;;2.80;99.90;;;;;;5116121;28;20478;-68
2021/12/06 08:37:29;;;;;;;32.93;20.57;;;2.80;99.90;;;;;;5116218;28;20456;-68
2021/12/06 08:39:55;;;;;;;33.93;22.10;;;2.80;99.90;;;;;;5116024;28;20456;-68
2021/12/06 08:42:22;;;;;;;33.30;21.80;;;2.90;99.90;;;;;;5115691;28;20909;-67
2021/12/06 08:44:49;;;;;;;34.50;19.90;;;2.90;99.90;;;;;;5114822;28;20898;-68
2021/12/06 08:47:17;;;;;;;31.37;20.33;;;2.90;99.90;;;;;;5115685;28;20457;-69
2021/12/06 08:49:46;;;;;;;36.60;21.70;;;2.90;99.90;;;;;;5115658;28;20466;-69
2021/12/06 08:52:14;;;;;;;38.90;20.50;;;3.00;99.90;;;;;;5115227;28;20491;-68
2021/12/06 08:54:42;;;;;;;37.97;21.37;;;3.00;99.90;;;;;;5115549;28;20521;-69
2021/12/06 08:57:09;;;;;;;30.90;19.60;;;3.00;99.90;;;;;;5115608;28;20522;-68
2021/12/06 08:59:36;;;;;;;31.20;20.10;;;3.00;99.90;;;;;;5115271;28;20474;-68
2021/12/06 09:02:03;;;;;;;31.70;19.53;;;3.10;99.90;;;;;;5115423;28;20453;-69
2021/12/06 09:04:34;;;;;;;35.43;21.33;;;3.10;99.90;;;;;;5115417;28;20460;-69
2021/12/06 09:07:09;;;;;;;30.20;19.10;;;3.10;99.90;;;;;;5114936;28;20536;-69
2021/12/06 09:09:36;;;;;;;28.53;19.27;;;3.20;99.90;;;;;;5115194;28;20765;-69
2021/12/06 09:12:03;;;;;;;50.70;32.47;;;3.20;99.90;;;;;;5115202;28;20567;-67
2021/12/06 09:14:30;;;;;;;34.37;21.47;;;3.30;99.90;;;;;;5115267;28;20456;-68
2021/12/06 09:16:58;;;;;;;32.33;19.80;;;3.30;99.90;;;;;;5115530;28;20592;-68
2021/12/06 09:19:24;;;;;;;34.97;19.93;;;3.30;99.90;;;;;;5115308;28;20790;-68
2021/12/06 09:21:51;;;;;;;30.27;17.67;;;3.30;99.90;;;;;;5115128;28;20456;-67
2021/12/06 09:24:21;;;;;;;30.63;18.70;;;3.30;99.90;;;;;;5115403;28;20829;-69
2021/12/06 09:26:48;;;;;;;34.50;21.90;;;3.30;99.90;;;;;;5114937;28;20566;-67
2021/12/06 09:29:15;;;;;;;35.73;23.50;;;3.30;99.90;;;;;;5115107;28;20471;-68
2021/12/06 09:31:43;;;;;;;39.43;21.67;;;3.40;99.90;;;;;;5115362;28;20503;-69
2021/12/06 09:34:10;;;;;;;35.37;20.43;;;3.40;99.90;;;;;;5114904;28;20457;-69
2021/12/06 09:36:37;;;;;;;28.10;18.23;;;3.30;99.90;;;;;;5114724;28;20452;-68
2021/12/06 09:39:05;;;;;;;30.40;19.00;;;3.40;99.90;;;;;;5114666;27;20901;-68
2021/12/06 09:41:34;;;;;;;26.40;17.40;;;3.40;99.90;;;;;;5114998;28;20457;-68
2021/12/06 09:44:03;;;;;;;29.90;20.00;;;3.40;99.90;;;;;;5114766;28;20575;-68
2021/12/06 09:46:35;;;;;;;34.73;17.83;;;3.30;99.90;;;;;;5114829;28;20460;-68
2021/12/06 09:49:03;;;;;;;30.90;19.53;;;3.30;99.90;;;;;;5115028;28;20441;-69
2021/12/06 09:51:30;;;;;;;27.70;17.50;;;3.40;99.90;;;;;;5114733;28;20589;-68
2021/12/06 09:53:58;;;;;;;34.43;19.47;;;3.40;99.90;;;;;;5115111;28;20460;-69
2021/12/06 09:56:30;;;;;;;29.17;19.97;;;3.40;99.90;;;;;;5114386;28;20460;-68
2021/12/06 09:59:00;;;;;;;28.83;17.17;;;3.40;99.90;;;;;;5115345;28;20443;-68
2021/12/06 10:01:30;;;;;;;30.57;19.33;;;3.40;99.90;;;;;;5115064;28;20456;-68
2021/12/06 10:03:59;;;;;;;37.70;20.63;;;3.40;99.90;;;;;;5114976;28;20448;-69
2021/12/06 10:06:27;;;;;;;35.10;20.27;;;3.40;99.90;;;;;;5114486;28;20833;-68
2021/12/06 10:08:56;;;;;;;35.20;19.77;;;3.30;99.90;;;;;;5114946;28;20456;-68
2021/12/06 10:11:25;;;;;;;27.83;17.97;;;3.40;99.90;;;;;;5114457;28;20468;-67
2021/12/06 10:13:53;;;;;;;28.90;18.03;;;3.40;99.90;;;;;;5114852;28;20483;-68
2021/12/06 10:16:22;;;;;;;31.93;18.10;;;3.40;99.90;;;;;;5114331;28;20457;-68
2021/12/06 10:18:49;;;;;;;30.53;17.40;;;3.50;99.90;;;;;;5114792;28;20488;-68
2021/12/06 10:21:16;;;;;;;29.50;17.33;;;3.50;99.90;;;;;;5114685;28;20460;-68
2021/12/06 10:23:43;;;;;;;28.60;19.13;;;3.50;99.90;;;;;;5114450;28;20448;-69
2021/12/06 10:26:12;;;;;;;28.03;18.00;;;3.60;99.90;;;;;;5114716;28;20455;-68
2021/12/06 10:28:44;;;;;;;27.40;16.90;;;3.60;99.90;;;;;;5114357;28;20456;-69
2021/12/06 10:31:13;;;;;;;28.10;17.90;;;3.60;99.90;;;;;;5114995;28;20444;-68
2021/12/06 10:33:44;;;;;;;28.20;17.53;;;3.60;99.90;;;;;;5114485;28;20491;-69
2021/12/06 10:36:13;;;;;;;26.90;17.50;;;3.60;99.90;;;;;;5114686;28;20452;-69
2021/12/06 10:38:47;;;;;;;27.40;18.03;;;3.70;99.90;;;;;;5114409;28;20747;-69
2021/12/06 10:41:16;;;;;;;25.37;16.00;;;3.70;99.90;;;;;;5115073;28;20445;-68
2021/12/06 10:43:52;;;;;;;25.03;15.73;;;3.70;99.90;;;;;;5113985;28;20567;-68
2021/12/06 10:46:19;;;;;;;28.90;16.37;;;3.70;99.90;;;;;;5114116;28;20443;-68
2021/12/06 10:48:48;;;;;;;26.90;17.13;;;3.70;99.90;;;;;;5114576;28;20467;-68
2021/12/06 10:51:18;;;;;;;23.93;15.60;;;3.70;99.90;;;;;;5114312;28;20763;-69
2021/12/06 10:53:50;;;;;;;23.30;15.87;;;3.80;99.90;;;;;;5114298;28;20476;-69
2021/12/06 10:56:25;;;;;;;26.57;15.20;;;3.90;99.90;;;;;;5115371;28;20806;-68
2021/12/06 10:58:56;;;;;;;20.03;13.70;;;3.90;99.90;;;;;;5115403;28;20534;-68
2021/12/06 11:01:27;;;;;;;21.10;14.93;;;3.90;99.90;;;;;;5115126;28;20456;-69
2021/12/06 11:03:57;;;;;;;21.30;14.23;;;3.90;99.90;;;;;;5114168;28;20447;-67
2021/12/06 11:06:27;;;;;;;21.90;13.70;;;3.90;99.90;;;;;;5113911;28;20460;-68
2021/12/06 11:08:57;;;;;;;24.23;14.80;;;3.90;99.90;;;;;;5117312;28;20452;-70
2021/12/06 11:11:27;;;;;;;22.63;15.03;;;4.00;99.90;;;;;;5117466;28;20468;-69
2021/12/06 11:14:00;;;;;;;20.00;12.77;;;4.10;99.90;;;;;;5117410;28;20482;-69
2021/12/06 11:16:28;;;;;;;16.93;10.90;;;4.10;99.90;;;;;;5117752;28;20451;-68
2021/12/06 11:18:59;;;;;;;19.00;12.80;;;4.20;99.90;;;;;;5117311;28;20551;-69
2021/12/06 11:21:30;;;;;;;21.60;12.43;;;4.20;99.90;;;;;;5117544;28;20521;-68
2021/12/06 11:23:59;;;;;;;23.37;13.50;;;4.20;99.90;;;;;;5117438;28;20441;-68
2021/12/06 11:26:26;;;;;;;21.10;14.10;;;4.20;99.90;;;;;;5117195;28;20467;-69
2021/12/06 11:28:53;;;;;;;20.90;13.73;;;4.20;99.90;;;;;;5117323;28;20931;-69
2021/12/06 11:31:21;;;;;;;19.87;13.50;;;4.20;99.90;;;;;;5117528;28;20470;-69
2021/12/06 11:33:59;;;;;;;16.20;12.10;;;4.20;99.90;;;;;;5117230;28;20476;-69
2021/12/06 11:36:27;;;;;;;17.20;12.10;;;4.10;99.90;;;;;;5117436;28;20437;-68
2021/12/06 11:39:00;;;;;;;21.20;13.20;;;4.10;99.90;;;;;;5117225;28;20452;-69
2021/12/06 11:41:27;;;;;;;15.23;10.90;;;4.10;99.90;;;;;;5117438;28;20460;-67
2021/12/06 11:43:54;;;;;;;17.67;11.30;;;4.10;99.90;;;;;;5116727;28;20476;-68
2021/12/06 11:46:29;;;;;;;17.70;13.10;;;4.10;99.90;;;;;;5117486;28;20796;-68
2021/12/06 11:48:58;;;;;;;17.43;11.90;;;4.10;99.90;;;;;;5116756;28;20471;-67
2021/12/06 11:51:26;;;;;;;17.80;11.27;;;4.10;99.90;;;;;;5117035;28;20487;-68
2021/12/06 11:53:55;;;;;;;18.10;11.60;;;4.20;99.90;;;;;;5116776;28;20487;-69
2021/12/06 11:56:25;;;;;;;14.60;10.43;;;4.20;99.90;;;;;;5116977;28;20460;-68
2021/12/06 11:58:54;;;;;;;18.13;11.37;;;4.10;99.90;;;;;;5116860;28;20457;-69
2021/12/06 12:01:24;;;;;;;18.57;11.57;;;4.10;99.90;;;;;;5116517;28;20574;-69
2021/12/06 12:03:54;;;;;;;16.37;11.03;;;4.10;99.90;;;;;;5116992;28;20436;-67
2021/12/06 12:06:26;;;;;;;17.20;10.90;;;4.10;99.90;;;;;;5116865;28;20807;-69
2021/12/06 12:09:04;;;;;;;15.30;10.27;;;4.10;99.90;;;;;;5116296;28;20928;-70
2021/12/06 12:11:32;;;;;;;24.03;14.83;;;4.10;99.90;;;;;;5116350;28;20437;-69
2021/12/06 12:14:10;;;;;;;16.23;11.73;;;4.10;99.90;;;;;;5116164;28;20968;-69
2021/12/06 12:16:36;;;;;;;15.60;11.00;;;4.00;99.90;;;;;;5116193;28;20448;-69
2021/12/06 12:19:06;;;;;;;17.10;10.50;;;4.10;99.90;;;;;;5116460;28;20448;-69
2021/12/06 12:21:34;;;;;;;16.97;10.97;;;4.10;99.90;;;;;;5116465;28;20468;-68
2021/12/06 12:24:01;;;;;;;20.83;13.60;;;4.00;99.90;;;;;;5116219;28;20463;-69
2021/12/06 12:26:28;;;;;;;18.37;11.80;;;4.00;99.90;;;;;;5115890;28;20932;-68
2021/12/06 12:29:01;;;;;;;19.13;12.30;;;3.90;99.90;;;;;;5116062;28;20495;-69
2021/12/06 12:31:30;;;;;;;19.83;11.90;;;4.00;99.90;;;;;;5116401;28;20457;-69
2021/12/06 12:33:58;;;;;;;18.67;10.90;;;4.00;99.90;;;;;;5116004;28;20765;-69
2021/12/06 12:36:28;;;;;;;18.57;12.60;;;4.00;99.90;;;;;;5115945;28;20460;-68
2021/12/06 12:38:59;;;;;;;17.00;12.13;;;4.10;99.90;;;;;;5116100;28;20454;-68
2021/12/06 12:41:28;;;;;;;16.13;11.30;;;4.10;99.90;;;;;;5115714;28;20437;-68
2021/12/06 12:44:02;;;;;;;18.60;11.07;;;4.10;99.90;;;;;;5115450;28;20531;-68
2021/12/06 12:46:36;;;;;;;15.97;11.03;;;4.10;99.90;;;;;;5115797;28;20781;-67
2021/12/06 12:49:05;;;;;;;14.80;10.20;;;4.10;99.90;;;;;;5115669;28;20437;-69